createdAt,value
2022-08-03T00:01:42.908Z,24.70
2022-08-03T00:04:11.407Z,24.70
2022-08-03T00:06:39.552Z,24.60
2022-08-03T00:09:07.608Z,24.30
2022-08-03T00:11:35.784Z,24.30
2022-08-03T00:14:05.367Z,24.60
2022-08-03T00:16:33.459Z,24.70
2022-08-03T00:19:01.602Z,24.60
2022-08-03T00:21:29.704Z,24.50
2022-08-03T00:23:57.852Z,24.50
2022-08-03T00:26:25.941Z,24.30
2022-08-03T00:28:54.004Z,24.30
2022-08-03T00:31:40.072Z,24.30
2022-08-03T00:34:12.499Z,24.30
2022-08-03T00:36:41.037Z,24.30
2022-08-03T00:39:09.421Z,24.40
2022-08-03T00:41:37.581Z,24.30
2022-08-03T00:44:05.917Z,24.10
2022-08-03T00:46:35.384Z,24.50
2022-08-03T00:49:03.476Z,24.30
2022-08-03T00:51:31.587Z,24.20
2022-08-03T00:53:59.637Z,24.40
2022-08-03T00:56:27.704Z,24.20
2022-08-03T00:58:55.739Z,24.10
2022-08-03T01:01:23.845Z,24.20
2022-08-03T01:03:53.316Z,24.10
2022-08-03T01:06:24.433Z,23.80
2022-08-03T01:08:56.051Z,24.10
2022-08-03T01:11:37.043Z,24.40
2022-08-03T01:14:28.152Z,24.30
2022-08-03T01:16:58.375Z,24.20
2022-08-03T01:19:42.878Z,24.10
2022-08-03T01:22:19.213Z,24.00
2022-08-03T01:24:51.887Z,24.20
2022-08-03T01:27:20.726Z,24.10
2022-08-03T01:29:58.272Z,24.10
2022-08-03T01:32:59.232Z,23.90
2022-08-03T01:35:17.795Z,23.80
2022-08-03T01:37:51.321Z,23.80
2022-08-03T01:40:19.554Z,23.90
2022-08-03T01:42:47.615Z,23.80
2022-08-03T01:45:18.057Z,23.90
2022-08-03T01:47:46.533Z,24.00
2022-08-03T01:50:14.744Z,23.80
2022-08-03T01:52:44.818Z,23.80
2022-08-03T01:55:13.460Z,24.00
2022-08-03T01:58:05.215Z,24.00
2022-08-03T02:00:31.679Z,24.00
2022-08-03T02:02:59.721Z,23.80
2022-08-03T02:05:27.920Z,24.30
2022-08-03T02:07:55.982Z,23.90
2022-08-03T02:10:34.508Z,24.10
2022-08-03T02:13:04.281Z,23.90
2022-08-03T02:15:34.089Z,23.70
2022-08-03T02:18:02.150Z,23.70
2022-08-03T02:20:30.286Z,23.70
2022-08-03T02:22:58.327Z,23.80
2022-08-03T02:25:26.533Z,23.50
2022-08-03T02:27:56.874Z,23.70
2022-08-03T02:30:25.376Z,23.50
2022-08-03T02:32:56.787Z,23.90
2022-08-03T02:35:25.790Z,24.00
2022-08-03T02:37:54.480Z,24.00
2022-08-03T02:40:22.550Z,24.00
2022-08-03T02:42:51.199Z,23.80
2022-08-03T02:45:19.260Z,23.50
2022-08-03T02:47:54.329Z,23.30
2022-08-03T02:50:24.504Z,23.70
2022-08-03T02:52:52.988Z,23.60
2022-08-03T02:55:21.681Z,23.50
2022-08-03T02:57:49.747Z,23.50
2022-08-03T03:00:27.110Z,23.70
2022-08-03T03:02:58.260Z,23.80
2022-08-03T03:05:53.626Z,23.80
2022-08-03T03:08:18.075Z,23.70
2022-08-03T03:10:46.940Z,23.70
2022-08-03T03:13:15.580Z,23.80
2022-08-03T03:15:43.694Z,23.60
2022-08-03T03:18:11.982Z,23.60
2022-08-03T03:20:41.990Z,23.50
2022-08-03T03:23:10.077Z,23.30
2022-08-03T03:25:38.143Z,23.30
2022-08-03T03:28:07.183Z,23.40
2022-08-03T03:30:35.280Z,23.50
2022-08-03T03:33:03.853Z,23.50
2022-08-03T03:35:31.972Z,23.30
2022-08-03T03:38:08.456Z,23.50
2022-08-03T03:40:36.673Z,23.50
2022-08-03T03:43:04.753Z,23.60
2022-08-03T03:45:32.894Z,23.30
2022-08-03T03:48:01.389Z,23.30
2022-08-03T03:50:29.488Z,23.40
2022-08-03T03:52:57.714Z,23.20
2022-08-03T03:55:27.157Z,23.10
2022-08-03T03:57:55.516Z,23.00
2022-08-03T04:00:23.626Z,23.00
2022-08-03T04:02:51.703Z,22.90
2022-08-03T04:05:37.078Z,23.20
2022-08-03T04:08:26.681Z,23.10
2022-08-03T04:11:05.262Z,23.20
2022-08-03T04:13:35.688Z,23.10
2022-08-03T04:16:03.925Z,23.10
2022-08-03T04:18:33.811Z,23.00
2022-08-03T04:21:04.615Z,23.10
2022-08-03T04:23:34.886Z,23.20
2022-08-03T04:26:04.472Z,23.20
2022-08-03T04:28:32.622Z,23.40
2022-08-03T04:31:00.938Z,23.30
2022-08-03T04:33:29.377Z,23.10
2022-08-03T04:36:01.514Z,23.20
2022-08-03T04:38:30.862Z,23.10
2022-08-03T04:40:58.950Z,23.10
2022-08-03T04:43:28.347Z,23.10
2022-08-03T04:45:56.450Z,23.20
2022-08-03T04:48:24.617Z,23.00
2022-08-03T04:50:52.708Z,23.20
2022-08-03T04:53:20.757Z,23.10
2022-08-03T04:55:49.807Z,23.30
2022-08-03T04:58:17.912Z,23.30
2022-08-03T05:00:51.139Z,23.20
2022-08-03T05:03:24.321Z,23.50
2022-08-03T05:05:53.320Z,23.40
2022-08-03T05:08:30.313Z,23.50
2022-08-03T05:10:59.803Z,23.50
2022-08-03T05:13:27.846Z,23.70
2022-08-03T05:15:57.309Z,23.80
2022-08-03T05:18:25.378Z,23.80
2022-08-03T05:20:53.520Z,23.80
2022-08-03T05:23:21.599Z,24.10
2022-08-03T05:25:50.292Z,24.20
2022-08-03T05:28:18.411Z,24.10
2022-08-03T05:30:46.478Z,24.30
2022-08-03T05:33:18.681Z,24.60
2022-08-03T05:36:01.222Z,24.80
2022-08-03T05:38:34.217Z,24.70
2022-08-03T05:41:23.627Z,25.10
2022-08-03T05:43:52.894Z,25.00
2022-08-03T05:46:21.507Z,25.20
2022-08-03T05:48:50.978Z,25.20
2022-08-03T05:51:19.077Z,25.50
2022-08-03T05:53:47.225Z,25.50
2022-08-03T05:56:16.536Z,25.50
2022-08-03T05:58:46.112Z,25.80
2022-08-03T06:01:14.375Z,25.60
2022-08-03T06:03:42.598Z,25.90
2022-08-03T06:06:12.222Z,26.20
2022-08-03T06:08:43.280Z,26.20
2022-08-03T06:11:11.478Z,26.20
2022-08-03T06:13:39.733Z,26.00
2022-08-03T06:16:07.844Z,26.00
2022-08-03T06:18:36.064Z,26.40
2022-08-03T06:21:14.032Z,26.50
2022-08-03T06:23:52.830Z,26.70
2022-08-03T06:26:21.851Z,26.80
2022-08-03T06:28:52.504Z,27.20
2022-08-03T06:31:24.150Z,27.40
2022-08-03T06:34:32.155Z,27.50
2022-08-03T06:36:40.886Z,27.60
2022-08-03T06:39:10.396Z,27.80
2022-08-03T06:41:44.749Z,27.90
2022-08-03T06:44:13.448Z,28.10
2022-08-03T06:46:42.388Z,28.40
2022-08-03T06:49:10.540Z,28.20
2022-08-03T06:52:05.404Z,27.90
2022-08-03T06:54:32.578Z,27.90
2022-08-03T06:57:01.170Z,28.90
2022-08-03T07:00:08.178Z,28.80
2022-08-03T07:02:19.308Z,29.10
2022-08-03T07:04:47.728Z,29.50
2022-08-03T07:07:15.836Z,29.40
2022-08-03T07:09:56.780Z,29.50
2022-08-03T07:12:26.925Z,29.30
2022-08-03T07:14:59.768Z,29.20
2022-08-03T07:17:29.433Z,29.70
2022-08-03T07:19:57.998Z,30.10
2022-08-03T07:22:26.144Z,30.00
2022-08-03T07:24:56.569Z,30.20
2022-08-03T07:27:27.212Z,30.40
2022-08-03T07:29:55.570Z,30.40
2022-08-03T07:32:23.684Z,30.70
2022-08-03T07:34:51.793Z,30.80
2022-08-03T07:37:21.302Z,30.90
2022-08-03T07:39:49.387Z,31.30
2022-08-03T07:42:19.137Z,31.40
2022-08-03T07:44:47.386Z,31.30
2022-08-03T07:47:22.698Z,31.30
2022-08-03T07:49:50.905Z,31.60
2022-08-03T07:52:36.803Z,31.90
2022-08-03T07:55:06.449Z,32.30
2022-08-03T07:57:36.155Z,32.30
2022-08-03T08:00:05.159Z,32.40
2022-08-03T08:02:33.286Z,32.70
2022-08-03T08:05:05.519Z,32.60
2022-08-03T08:07:34.136Z,32.70
2022-08-03T08:10:02.193Z,33.20
2022-08-03T08:12:30.303Z,33.40
2022-08-03T08:15:00.919Z,33.40
2022-08-03T08:17:29.159Z,33.40
2022-08-03T08:19:57.812Z,33.50
2022-08-03T08:22:29.909Z,33.30
2022-08-03T08:24:59.114Z,33.80
2022-08-03T08:27:27.392Z,34.00
2022-08-03T08:30:00.586Z,33.70
2022-08-03T08:32:34.318Z,34.40
2022-08-03T08:35:02.427Z,33.40
2022-08-03T08:37:30.641Z,34.70
2022-08-03T08:39:58.697Z,34.90
2022-08-03T08:42:26.835Z,34.80
2022-08-03T08:44:55.129Z,34.90
2022-08-03T08:47:24.301Z,35.10
2022-08-03T08:50:09.301Z,35.30
2022-08-03T08:52:38.561Z,34.40
2022-08-03T08:55:07.913Z,34.20
2022-08-03T08:57:44.696Z,34.80
2022-08-03T09:00:15.100Z,34.90
2022-08-03T09:02:43.596Z,35.00
2022-08-03T09:05:13.777Z,35.90
2022-08-03T09:07:41.954Z,34.80
2022-08-03T09:10:13.311Z,35.90
2022-08-03T09:12:44.015Z,35.80
2022-08-03T09:15:22.903Z,36.20
2022-08-03T09:17:51.565Z,36.20
2022-08-03T09:20:21.372Z,37.00
2022-08-03T09:22:59.384Z,36.80
2022-08-03T09:25:34.329Z,36.30
2022-08-03T09:28:10.601Z,37.10
2022-08-03T09:30:39.092Z,37.50
2022-08-03T09:33:08.732Z,37.70
2022-08-03T09:35:59.033Z,36.90
2022-08-03T09:38:27.625Z,37.20
2022-08-03T09:40:59.587Z,37.40
2022-08-03T09:43:28.667Z,36.90
2022-08-03T09:46:03.861Z,37.90
2022-08-03T09:48:32.001Z,38.30
2022-08-03T09:51:14.227Z,37.10
2022-08-03T09:53:57.271Z,37.80
2022-08-03T09:56:40.531Z,37.60
2022-08-03T09:59:08.910Z,38.00
2022-08-03T10:01:37.452Z,37.80
2022-08-03T10:04:05.812Z,38.30
2022-08-03T10:06:35.264Z,37.70
2022-08-03T10:09:07.737Z,38.20
2022-08-03T10:11:40.738Z,37.90
2022-08-03T10:14:11.058Z,37.90
2022-08-03T10:16:40.178Z,37.30
2022-08-03T10:19:09.815Z,36.90
2022-08-03T10:21:40.471Z,37.40
2022-08-03T10:24:10.775Z,38.70
2022-08-03T10:26:49.935Z,38.10
2022-08-03T10:29:22.490Z,37.90
2022-08-03T10:31:57.405Z,37.80
2022-08-03T10:34:27.989Z,38.40
2022-08-03T10:37:00.914Z,38.80
2022-08-03T10:39:30.105Z,39.10
2022-08-03T10:41:59.925Z,39.30
2022-08-03T10:44:33.896Z,39.00
2022-08-03T10:47:02.034Z,38.80
2022-08-03T10:49:33.736Z,38.60
2022-08-03T10:52:11.383Z,38.80
2022-08-03T10:55:11.049Z,38.90
2022-08-03T10:57:48.821Z,38.90
2022-08-03T11:00:19.957Z,39.30
2022-08-03T11:03:08.724Z,39.40
2022-08-03T11:05:38.947Z,38.10
2022-08-03T11:08:28.039Z,37.80
2022-08-03T11:10:57.256Z,37.40
2022-08-03T11:13:26.183Z,39.00
2022-08-03T11:16:00.063Z,39.10
2022-08-03T11:18:31.646Z,39.20
2022-08-03T11:21:00.547Z,38.60
2022-08-03T11:24:02.717Z,39.10
2022-08-03T11:26:34.501Z,39.10
2022-08-03T11:29:27.839Z,39.20
2022-08-03T11:31:56.061Z,40.10
2022-08-03T11:34:24.770Z,40.40
2022-08-03T11:37:29.998Z,39.80
2022-08-03T11:40:02.790Z,39.80
2022-08-03T11:42:48.158Z,39.20
2022-08-03T11:45:16.318Z,39.50
2022-08-03T11:47:51.106Z,40.20
2022-08-03T11:50:21.444Z,38.20
2022-08-03T11:52:50.064Z,39.70
2022-08-03T11:55:22.073Z,39.10
2022-08-03T11:59:00.956Z,39.90
2022-08-03T12:00:38.855Z,39.70
2022-08-03T12:03:08.180Z,40.30
2022-08-03T12:05:41.467Z,40.40
2022-08-03T12:08:09.708Z,39.80
2022-08-03T12:10:39.715Z,39.30
2022-08-03T12:13:56.699Z,40.30
2022-08-03T12:15:59.293Z,39.50
2022-08-03T12:18:27.496Z,40.30
2022-08-03T12:21:05.487Z,40.70
2022-08-03T12:23:37.576Z,41.10
2022-08-03T12:26:08.189Z,40.70
2022-08-03T12:28:38.440Z,40.80
2022-08-03T12:31:07.755Z,40.50
2022-08-03T12:33:58.969Z,40.50
2022-08-03T12:36:27.719Z,39.60
2022-08-03T12:38:56.715Z,40.00
2022-08-03T12:41:30.955Z,40.80
2022-08-03T12:43:59.062Z,39.10
2022-08-03T12:46:31.697Z,39.80
2022-08-03T12:49:01.126Z,38.80
2022-08-03T12:51:29.480Z,39.90
2022-08-03T12:53:58.106Z,40.10
2022-08-03T12:56:26.281Z,40.30
2022-08-03T12:58:55.741Z,40.80
2022-08-03T13:01:24.531Z,41.10
2022-08-03T13:03:54.654Z,40.40
2022-08-03T13:06:24.031Z,40.30
2022-08-03T13:09:02.386Z,40.10
2022-08-03T13:11:57.242Z,40.30
2022-08-03T13:14:20.571Z,40.00
2022-08-03T13:16:49.456Z,39.40
2022-08-03T13:19:17.680Z,40.30
2022-08-03T13:21:53.833Z,37.30
2022-08-03T13:24:32.919Z,37.80
2022-08-03T13:27:22.012Z,37.70
2022-08-03T13:29:50.580Z,37.80
2022-08-03T13:32:18.771Z,39.40
2022-08-03T13:34:52.037Z,38.40
2022-08-03T13:37:20.299Z,38.30
2022-08-03T13:39:59.923Z,39.00
2022-08-03T13:42:30.999Z,40.10
2022-08-03T13:45:00.493Z,40.50
2022-08-03T13:47:28.623Z,41.30
2022-08-03T13:50:01.133Z,40.60
2022-08-03T13:52:34.199Z,40.00
2022-08-03T13:55:02.398Z,39.30
2022-08-03T13:58:02.349Z,40.10
2022-08-03T14:00:27.093Z,40.30
2022-08-03T14:03:02.824Z,39.40
2022-08-03T14:05:32.769Z,38.80
2022-08-03T14:08:04.609Z,39.90
2022-08-03T14:10:33.795Z,39.60
2022-08-03T14:13:01.950Z,40.10
2022-08-03T14:15:31.459Z,40.30
2022-08-03T14:17:59.553Z,40.30
2022-08-03T14:20:38.926Z,40.50
2022-08-03T14:23:15.889Z,40.10
2022-08-03T14:25:51.583Z,40.30
2022-08-03T14:28:22.493Z,40.40
2022-08-03T14:30:52.455Z,40.40
2022-08-03T14:33:20.615Z,40.30
2022-08-03T14:35:48.737Z,40.70
2022-08-03T14:38:16.818Z,40.40
2022-08-03T14:40:44.996Z,41.10
2022-08-03T14:43:13.116Z,40.30
2022-08-03T14:45:41.389Z,39.50
2022-08-03T14:50:28.892Z,38.80
2022-08-03T14:51:00.569Z,39.00
2022-08-03T14:53:29.573Z,39.90
2022-08-03T14:55:57.700Z,40.30
2022-08-03T14:58:26.811Z,40.30
2022-08-03T15:00:55.707Z,40.20
2022-08-03T15:03:25.478Z,40.40
2022-08-03T15:05:53.903Z,40.50
2022-08-03T15:08:21.984Z,41.00
2022-08-03T15:10:50.666Z,40.30
2022-08-03T15:13:19.537Z,39.70
2022-08-03T15:15:48.166Z,40.00
2022-08-03T15:18:20.280Z,40.50
2022-08-03T15:20:50.918Z,40.40
2022-08-03T15:23:19.275Z,40.70
2022-08-03T15:26:32.397Z,40.10
2022-08-03T15:28:37.257Z,40.30
2022-08-03T15:31:05.699Z,40.20
2022-08-03T15:33:33.773Z,38.50
2022-08-03T15:36:05.235Z,38.80
2022-08-03T15:38:33.356Z,40.30
2022-08-03T15:41:01.476Z,40.40
2022-08-03T15:43:29.611Z,39.90
2022-08-03T15:46:26.927Z,40.60
2022-08-03T15:48:46.912Z,39.60
2022-08-03T15:51:16.415Z,39.90
2022-08-03T15:53:44.544Z,40.40
2022-08-03T15:56:16.834Z,39.50
2022-08-03T15:59:10.003Z,40.30
2022-08-03T16:01:34.938Z,40.20
2022-08-03T16:04:03.040Z,39.20
2022-08-03T16:06:35.761Z,39.80
2022-08-03T16:09:05.879Z,39.90
2022-08-03T16:11:52.572Z,39.30
2022-08-03T16:14:34.407Z,40.30
2022-08-03T16:17:05.930Z,39.90
2022-08-03T16:19:34.019Z,39.80
2022-08-03T16:22:05.168Z,39.90
2022-08-03T16:24:34.380Z,39.60
2022-08-03T16:27:06.022Z,39.80
2022-08-03T16:29:45.671Z,39.60
2022-08-03T16:32:13.745Z,40.30
2022-08-03T16:34:41.795Z,40.40
2022-08-03T16:37:37.101Z,40.40
2022-08-03T16:39:59.833Z,40.40
2022-08-03T16:42:27.954Z,40.30
2022-08-03T16:44:56.141Z,39.30
2022-08-03T16:47:24.377Z,39.30
2022-08-03T16:49:56.020Z,39.30
2022-08-03T16:52:25.873Z,39.60
2022-08-03T16:54:55.551Z,40.10
2022-08-03T16:57:56.560Z,40.30
2022-08-03T17:00:33.034Z,40.00
2022-08-03T17:03:04.662Z,39.90
2022-08-03T17:05:47.974Z,39.80
2022-08-03T17:08:26.729Z,39.50
2022-08-03T17:10:56.030Z,39.80
2022-08-03T17:13:27.819Z,39.60
2022-08-03T17:16:09.528Z,39.40
2022-08-03T17:18:42.238Z,39.40
2022-08-03T17:21:15.596Z,39.30
2022-08-03T17:23:47.925Z,39.40
2022-08-03T17:26:21.648Z,39.30
2022-08-03T17:28:56.431Z,39.30
2022-08-03T17:31:31.391Z,39.30
2022-08-03T17:34:01.088Z,39.10
2022-08-03T17:37:01.714Z,39.30
2022-08-03T17:39:30.956Z,39.30
2022-08-03T17:42:29.506Z,39.10
2022-08-03T17:44:57.246Z,38.80
2022-08-03T17:47:40.952Z,37.90
2022-08-03T17:50:25.231Z,37.80
2022-08-03T17:52:57.963Z,38.30
2022-08-03T17:55:56.496Z,38.30
2022-08-03T17:58:19.033Z,38.40
2022-08-03T18:01:59.163Z,38.30
2022-08-03T18:03:58.419Z,38.40
2022-08-03T18:06:28.895Z,38.20
2022-08-03T18:08:57.484Z,38.30
2022-08-03T18:11:37.052Z,38.30
2022-08-03T18:14:15.977Z,38.10
2022-08-03T18:16:45.990Z,38.00
2022-08-03T18:19:14.395Z,37.50
2022-08-03T18:22:02.545Z,37.60
2022-08-03T18:24:31.933Z,37.40
2022-08-03T18:27:03.230Z,37.20
2022-08-03T18:29:31.984Z,37.20
2022-08-03T18:32:03.039Z,37.00
2022-08-03T18:34:34.507Z,36.80
2022-08-03T18:37:07.336Z,36.50
2022-08-03T18:39:49.260Z,36.30
2022-08-03T18:42:25.873Z,36.10
2022-08-03T18:44:56.553Z,36.30
2022-08-03T18:47:50.702Z,36.00
2022-08-03T18:50:24.558Z,36.10
2022-08-03T18:52:55.779Z,36.00
2022-08-03T18:55:33.791Z,35.70
2022-08-03T18:58:15.954Z,35.60
2022-08-03T19:00:55.110Z,35.70
2022-08-03T19:03:43.035Z,35.20
2022-08-03T19:06:14.592Z,35.10
2022-08-03T19:08:48.122Z,34.50
2022-08-03T19:11:18.977Z,34.30
2022-08-03T19:13:50.755Z,33.90
2022-08-03T19:16:22.613Z,33.80
2022-08-03T19:18:53.537Z,34.00
2022-08-03T19:21:22.452Z,33.90
2022-08-03T19:23:50.545Z,33.80
2022-08-03T19:26:30.809Z,33.50
2022-08-03T19:29:00.854Z,33.40
2022-08-03T19:31:31.112Z,33.50
2022-08-03T19:34:03.021Z,33.30
2022-08-03T19:36:32.774Z,33.30
2022-08-03T19:39:00.886Z,32.90
2022-08-03T19:41:41.964Z,32.80
2022-08-03T19:44:12.889Z,32.40
2022-08-03T19:46:53.540Z,32.20
2022-08-03T19:49:26.110Z,31.60
2022-08-03T19:52:14.344Z,31.80
2022-08-03T19:54:53.596Z,31.70
2022-08-03T19:57:24.375Z,31.50
2022-08-03T19:59:53.990Z,32.10
2022-08-03T20:02:27.195Z,32.30
2022-08-03T20:04:56.037Z,32.30
2022-08-03T20:07:24.170Z,31.90
2022-08-03T20:12:40.823Z,31.80
2022-08-03T20:15:10.901Z,31.80
2022-08-03T20:17:56.220Z,31.80
2022-08-03T20:20:27.553Z,31.50
2022-08-03T20:22:57.589Z,31.60
2022-08-03T20:25:38.366Z,31.50
2022-08-03T20:28:14.512Z,31.30
2022-08-03T20:30:47.132Z,31.20
2022-08-03T20:33:18.545Z,30.70
2022-08-03T20:35:48.896Z,31.10
2022-08-03T20:38:17.856Z,31.20
2022-08-03T20:40:46.957Z,31.10
2022-08-03T20:43:15.064Z,31.00
2022-08-03T20:45:59.159Z,31.20
2022-08-03T20:48:32.955Z,31.00
2022-08-03T20:51:01.060Z,30.80
2022-08-03T20:53:57.411Z,30.80
2022-08-03T20:56:17.394Z,30.60
2022-08-03T20:58:50.749Z,30.60
2022-08-03T21:01:27.722Z,30.40
2022-08-03T21:04:04.682Z,30.10
2022-08-03T21:06:37.646Z,29.80
2022-08-03T21:09:06.932Z,30.10
2022-08-03T21:11:41.949Z,30.00
2022-08-03T21:13:10.337Z,31.70
2022-08-03T21:14:12.876Z,29.90
2022-08-03T21:16:43.172Z,29.80
2022-08-03T21:19:11.297Z,29.70
2022-08-03T21:21:40.222Z,29.90
2022-08-03T21:24:09.248Z,29.80
2022-08-03T21:26:37.878Z,29.80
2022-08-03T21:29:06.084Z,29.80
2022-08-03T21:31:34.219Z,29.80
2022-08-03T21:34:05.020Z,29.60
2022-08-03T21:36:34.058Z,29.70
2022-08-03T21:39:02.407Z,29.80
2022-08-03T21:41:32.181Z,29.60
2022-08-03T21:44:00.558Z,29.50
2022-08-03T21:46:30.345Z,29.60
2022-08-03T21:50:05.504Z,29.40
2022-08-03T21:51:51.551Z,29.60
2022-08-03T21:54:20.100Z,29.40
2022-08-03T21:56:49.007Z,29.30
2022-08-03T21:59:18.220Z,29.20
2022-08-03T22:01:49.164Z,28.90
2022-08-03T22:04:50.445Z,28.80
2022-08-03T22:07:09.697Z,28.60
2022-08-03T22:09:37.815Z,28.80
2022-08-03T22:12:07.100Z,28.80
2022-08-03T22:14:35.245Z,29.00
2022-08-03T22:17:06.370Z,28.20
2022-08-03T22:19:35.404Z,28.50
2022-08-03T22:22:04.650Z,28.70
2022-08-03T22:24:34.061Z,28.70
2022-08-03T22:27:20.414Z,27.40
2022-08-03T22:29:48.749Z,27.70
2022-08-03T22:32:16.840Z,27.80
2022-08-03T22:34:44.928Z,27.30
2022-08-03T22:37:13.061Z,27.70
2022-08-03T22:39:42.609Z,27.40
2022-08-03T22:42:10.831Z,27.50
2022-08-03T22:44:38.925Z,28.00
2022-08-03T22:47:07.310Z,28.30
2022-08-03T22:49:35.414Z,28.50
2022-08-03T22:52:03.508Z,28.70
2022-08-03T22:54:32.799Z,28.50
2022-08-03T22:57:02.225Z,28.70
2022-08-03T22:59:40.031Z,28.50
2022-08-03T23:02:19.948Z,28.50
2022-08-03T23:04:51.372Z,28.50
2022-08-03T23:07:22.355Z,28.30
2022-08-03T23:09:50.669Z,28.40
2022-08-03T23:12:21.043Z,28.20
2022-08-03T23:14:53.174Z,28.20
2022-08-03T23:17:21.750Z,28.20
2022-08-03T23:19:51.246Z,28.30
2022-08-03T23:22:30.662Z,28.30
2022-08-03T23:24:59.546Z,28.10
2022-08-03T23:27:29.567Z,27.60
2022-08-03T23:29:57.627Z,28.00
2022-08-03T23:32:26.598Z,27.90
2022-08-03T23:35:12.585Z,27.90
2022-08-03T23:38:04.435Z,28.00
2022-08-03T23:40:31.208Z,27.80
2022-08-03T23:43:00.643Z,28.00
2022-08-03T23:45:28.828Z,28.00
2022-08-03T23:47:56.875Z,27.80
2022-08-03T23:50:25.098Z,27.30
2022-08-03T23:52:57.340Z,27.10
2022-08-03T23:55:33.942Z,27.30
2022-08-03T23:58:10.959Z,27.40
